Time;durP1;ratioP1;P1;durP2;ratioP2;P2;SDS_P1;SDS_P2;PMS_P1;PMS_P2;Temp;Humidity;BMP_temperature;BMP_pressure;BME280_temperature;BME280_humidity;BME280_pressure;Samples;Min_cycle;Max_cycle;Signal;HPM_P1;HPM_P2
2023/01/30 00:00:35;;;;;;;7.63;6.45;;;-1.70;99.90;;;;;;4888826;29;20132;-71
2023/01/30 00:03:01;;;;;;;9.82;6.60;;;-1.70;99.90;;;;;;4892826;29;20059;-71
2023/01/30 00:05:27;;;;;;;8.18;6.55;;;-1.80;99.90;;;;;;4894324;29;20036;-71
2023/01/30 00:07:52;;;;;;;8.30;6.60;;;-1.90;99.90;;;;;;4897639;29;20130;-70
2023/01/30 00:10:18;;;;;;;9.30;6.90;;;-1.80;99.90;;;;;;4892419;29;20136;-71
2023/01/30 00:12:44;;;;;;;7.30;6.15;;;-1.80;99.90;;;;;;4896357;29;20036;-71
2023/01/30 00:15:10;;;;;;;11.20;6.55;;;-1.80;99.90;;;;;;4893376;29;20056;-71
2023/01/30 00:17:35;;;;;;;8.85;6.55;;;-1.80;99.90;;;;;;4896580;29;20096;-72
2023/01/30 00:20:01;;;;;;;8.98;6.85;;;-1.90;99.90;;;;;;4876641;29;20044;-73
2023/01/30 00:22:27;;;;;;;8.32;6.70;;;-1.90;99.90;;;;;;4891559;29;20036;-73
2023/01/30 00:24:52;;;;;;;8.07;6.35;;;-1.90;99.90;;;;;;4896017;29;20036;-72
2023/01/30 00:27:18;;;;;;;9.30;6.85;;;-1.90;99.90;;;;;;4883530;29;20438;-74
2023/01/30 00:29:44;;;;;;;8.63;6.93;;;-1.90;99.90;;;;;;4900370;29;20127;-74
2023/01/30 00:32:09;;;;;;;8.45;6.28;;;-1.90;99.90;;;;;;4883529;29;20671;-75
2023/01/30 00:34:35;;;;;;;8.25;6.38;;;-1.80;99.90;;;;;;4899693;29;20474;-75
2023/01/30 00:37:01;;;;;;;9.20;6.93;;;-1.80;99.90;;;;;;4898660;29;20088;-75
2023/01/30 00:39:26;;;;;;;7.85;6.80;;;-1.80;99.90;;;;;;4900724;29;20036;-75
2023/01/30 00:47:21;;;;;;;9.63;7.30;;;-1.90;99.90;;;;;;4895485;29;20730;-74
2023/01/30 00:49:47;;;;;;;11.20;7.15;;;-1.80;99.90;;;;;;4886817;29;20091;-74
2023/01/30 00:52:12;;;;;;;11.27;7.38;;;-1.80;99.90;;;;;;4889575;29;20039;-75
2023/01/30 00:54:38;;;;;;;10.77;7.57;;;-1.90;99.90;;;;;;4890852;29;20056;-74
2023/01/30 00:57:04;;;;;;;9.05;7.35;;;-1.80;99.90;;;;;;4891262;29;20056;-74
2023/01/30 00:59:29;;;;;;;9.35;6.07;;;-1.90;99.90;;;;;;4892815;29;20103;-74
2023/01/30 01:01:55;;;;;;;11.45;6.20;;;-2.00;99.90;;;;;;4888965;29;20044;-74
2023/01/30 01:04:21;;;;;;;9.52;5.10;;;-2.00;99.90;;;;;;4894381;29;20111;-71
2023/01/30 01:06:46;;;;;;;7.03;5.97;;;-2.10;99.90;;;;;;4893005;29;20572;-70
2023/01/30 01:09:12;;;;;;;7.78;5.68;;;-2.10;99.90;;;;;;4893880;29;20040;-71
2023/01/30 01:11:37;;;;;;;9.10;6.05;;;-2.10;99.90;;;;;;4886449;29;20033;-71
2023/01/30 01:14:05;;;;;;;8.93;6.60;;;-2.10;99.90;;;;;;4890398;29;20032;-68
2023/01/30 01:16:33;;;;;;;8.10;6.45;;;-2.10;99.90;;;;;;4881694;29;20505;-67
2023/01/30 01:18:59;;;;;;;8.20;6.82;;;-2.10;99.90;;;;;;4874975;29;20036;-68
2023/01/30 01:21:25;;;;;;;10.88;7.25;;;-2.10;99.90;;;;;;4883937;29;20047;-69
2023/01/30 01:23:52;;;;;;;7.18;5.82;;;-2.10;99.90;;;;;;4885669;29;20051;-68
2023/01/30 01:26:18;;;;;;;10.35;6.05;;;-2.10;99.90;;;;;;4883126;29;20638;-68
2023/01/30 01:28:44;;;;;;;7.72;6.32;;;-2.10;99.90;;;;;;4886411;29;20043;-68
2023/01/30 01:31:11;;;;;;;6.43;5.57;;;-2.20;99.90;;;;;;4888971;29;20032;-69
2023/01/30 01:33:37;;;;;;;9.13;6.10;;;-2.20;99.90;;;;;;4884160;29;20099;-71
2023/01/30 01:36:03;;;;;;;9.18;5.97;;;-2.20;99.90;;;;;;4893362;29;20166;-71
2023/01/30 01:38:29;;;;;;;7.55;6.32;;;-2.20;99.90;;;;;;4899755;29;20075;-71
2023/01/30 01:41:01;;;;;;;9.02;6.18;;;-2.30;99.90;;;;;;4888477;29;20182;-71
2023/01/30 01:43:27;;;;;;;;;;;-2.30;99.90;;;;;;4896829;29;20051;-71
2023/01/30 01:45:57;;;;;;;9.52;6.03;;;-2.30;99.90;;;;;;4897108;29;20009;-71
2023/01/30 01:48:46;;;;;;;8.32;6.13;;;-2.20;99.90;;;;;;4901531;29;20521;-71
2023/01/30 01:51:21;;;;;;;9.73;6.18;;;-2.20;99.90;;;;;;4888781;29;20045;-69
2023/01/30 01:53:54;;;;;;;9.63;7.07;;;-2.20;99.90;;;;;;4893335;29;20054;-68
2023/01/30 01:56:21;;;;;;;10.50;7.15;;;-2.20;99.90;;;;;;4880551;29;23112;-68
2023/01/30 01:59:02;;;;;;;9.50;6.72;;;-2.20;99.90;;;;;;4880128;29;20048;-68
2023/01/30 02:01:29;;;;;;;9.55;6.85;;;-2.20;99.90;;;;;;4890432;29;20047;-68
2023/01/30 02:04:00;;;;;;;9.85;6.72;;;-2.20;99.90;;;;;;4885002;29;20052;-68
2023/01/30 02:06:27;;;;;;;9.52;6.75;;;-2.10;99.90;;;;;;4892997;29;20123;-68
2023/01/30 02:08:58;;;;;;;9.90;6.93;;;-2.10;99.90;;;;;;4890033;29;20552;-68
2023/01/30 02:11:45;;;;;;;10.35;7.18;;;-2.00;99.90;;;;;;4883690;29;20596;-68
2023/01/30 02:14:12;;;;;;;9.32;6.63;;;-2.20;99.90;;;;;;4893424;29;20128;-67
2023/01/30 02:16:38;;;;;;;9.00;7.03;;;-2.30;99.90;;;;;;4895184;29;20393;-67
2023/01/30 02:19:42;;;;;;;9.70;7.15;;;-2.20;99.90;;;;;;4892226;29;20093;-68
2023/01/30 02:22:38;;;;;;;9.40;7.57;;;-2.20;99.90;;;;;;4882827;29;20714;-68
2023/01/30 02:25:29;;;;;;;10.32;7.15;;;-2.20;99.90;;;;;;4894200;29;20044;-68
2023/01/30 02:28:31;;;;;;;9.38;7.32;;;-2.20;99.90;;;;;;4890877;29;20375;-68
2023/01/30 02:31:14;;;;;;;9.60;7.47;;;-2.20;99.90;;;;;;4891258;29;20443;-68
2023/01/30 02:33:54;;;;;;;10.15;7.05;;;-2.20;99.90;;;;;;4893716;29;20111;-68
2023/01/30 02:36:57;;;;;;;9.10;7.45;;;-2.30;99.90;;;;;;4892602;29;20578;-68
2023/01/30 02:39:37;;;;;;;9.80;6.80;;;-2.40;99.90;;;;;;4896423;29;20316;-68
2023/01/30 02:42:17;;;;;;;10.27;7.35;;;-2.50;99.90;;;;;;4895390;29;20047;-68
2023/01/30 02:45:03;;;;;;;10.82;7.88;;;-2.60;99.90;;;;;;4901497;29;20044;-68
2023/01/30 02:47:40;;;;;;;10.80;7.50;;;-2.60;99.90;;;;;;4901148;29;20115;-68
2023/01/30 02:50:25;;;;;;;10.80;7.20;;;-2.50;99.90;;;;;;4895778;29;20104;-67
2023/01/30 02:52:52;;;;;;;10.63;7.35;;;-2.50;99.90;;;;;;4903241;29;20848;-68
2023/01/30 02:55:21;;;;;;;10.73;7.18;;;-2.50;99.90;;;;;;4903088;29;20073;-68
2023/01/30 02:57:46;;;;;;;11.75;8.55;;;-2.50;99.90;;;;;;4902120;29;20614;-68
2023/01/30 03:00:17;;;;;;;13.00;8.25;;;-2.50;99.90;;;;;;4900462;29;20044;-67
2023/01/30 03:03:10;;;;;;;10.47;7.17;;;-2.50;99.90;;;;;;4905393;29;20520;-67
2023/01/30 03:05:41;;;;;;;10.30;7.78;;;-2.50;99.90;;;;;;4902315;29;20294;-68
2023/01/30 03:08:19;;;;;;;12.57;8.60;;;-2.40;99.90;;;;;;4902142;29;20115;-69
2023/01/30 03:11:02;;;;;;;12.73;8.48;;;-2.40;99.90;;;;;;4904653;29;20095;-71
2023/01/30 03:13:48;;;;;;;10.00;7.45;;;-2.50;99.90;;;;;;4909542;29;20074;-71
2023/01/30 03:16:36;;;;;;;12.90;8.57;;;-2.40;99.90;;;;;;4894445;29;20044;-71
2023/01/30 03:19:05;;;;;;;10.98;7.63;;;-2.50;99.90;;;;;;4904611;29;20533;-71
2023/01/30 03:21:32;;;;;;;17.77;13.52;;;-2.50;99.90;;;;;;4904082;29;20032;-71
2023/01/30 03:23:57;;;;;;;10.27;7.93;;;-2.50;99.90;;;;;;4908951;29;20034;-71
2023/01/30 03:26:28;;;;;;;11.73;9.02;;;-2.50;99.90;;;;;;4900927;29;20036;-71
2023/01/30 03:28:54;;;;;;;11.07;8.23;;;-2.50;99.90;;;;;;4898636;29;20542;-68
2023/01/30 03:31:19;;;;;;;12.20;8.95;;;-2.50;99.90;;;;;;4899686;29;20028;-68
2023/01/30 03:33:45;;;;;;;12.48;7.95;;;-2.50;99.90;;;;;;4899906;29;20068;-69
2023/01/30 03:36:11;;;;;;;12.23;8.43;;;-2.50;99.90;;;;;;4896732;29;20060;-68
2023/01/30 03:38:37;;;;;;;12.32;8.30;;;-2.60;99.90;;;;;;4901251;29;20051;-68
2023/01/30 03:41:04;;;;;;;14.75;9.45;;;-2.50;99.90;;;;;;4900165;29;20039;-68
2023/01/30 03:43:29;;;;;;;15.10;9.85;;;-2.60;99.90;;;;;;4897373;29;20552;-68
2023/01/30 03:45:55;;;;;;;12.70;9.85;;;-2.60;99.90;;;;;;4901232;29;20047;-68
2023/01/30 03:48:21;;;;;;;12.18;9.32;;;-2.60;99.90;;;;;;4899014;29;20380;-72
2023/01/30 03:50:46;;;;;;;14.93;9.43;;;-2.70;99.90;;;;;;4894286;29;20536;-72
2023/01/30 03:53:12;;;;;;;15.98;10.30;;;-2.70;99.90;;;;;;4902112;29;20040;-71
2023/01/30 03:55:38;;;;;;;13.18;9.40;;;-2.60;99.90;;;;;;4899154;29;20548;-72
2023/01/30 03:58:04;;;;;;;14.40;10.30;;;-2.60;99.90;;;;;;4895947;29;20119;-72
2023/01/30 04:00:29;;;;;;;15.13;9.27;;;-2.60;99.90;;;;;;4902795;29;20119;-72
2023/01/30 04:02:56;;;;;;;14.32;9.73;;;-2.60;99.90;;;;;;4899838;29;20052;-71
2023/01/30 04:05:22;;;;;;;13.30;9.55;;;-2.60;99.90;;;;;;4898292;29;20044;-68
2023/01/30 04:07:48;;;;;;;13.57;9.77;;;-2.70;99.90;;;;;;4897852;29;20040;-68
2023/01/30 04:10:14;;;;;;;12.45;9.18;;;-2.60;99.90;;;;;;4898923;29;20036;-68
2023/01/30 04:12:41;;;;;;;13.40;9.27;;;-2.60;99.90;;;;;;4899468;29;20063;-69
2023/01/30 04:15:08;;;;;;;15.27;9.55;;;-2.60;99.90;;;;;;4894979;29;20028;-68
2023/01/30 04:17:33;;;;;;;14.15;9.45;;;-2.70;99.90;;;;;;4897963;29;20048;-68
2023/01/30 04:19:59;;;;;;;13.70;9.90;;;-2.70;99.90;;;;;;4896166;29;20063;-68
2023/01/30 04:22:25;;;;;;;17.63;9.07;;;-2.70;99.90;;;;;;4899146;29;20044;-68
2023/01/30 04:24:50;;;;;;;13.82;9.70;;;-2.70;99.90;;;;;;4913090;29;20045;-68
2023/01/30 04:27:16;;;;;;;11.80;8.13;;;-2.80;99.90;;;;;;4899057;29;20172;-68
2023/01/30 04:29:41;;;;;;;13.20;9.32;;;-2.90;99.90;;;;;;4915975;29;20055;-68
2023/01/30 04:32:07;;;;;;;11.50;8.63;;;-2.90;99.90;;;;;;4897347;29;20040;-69
2023/01/30 04:34:33;;;;;;;14.57;9.80;;;-2.90;99.90;;;;;;4892739;29;21155;-70
2023/01/30 04:36:58;;;;;;;11.90;8.20;;;-3.00;99.90;;;;;;4899628;29;20506;-69
2023/01/30 04:39:24;;;;;;;13.05;9.38;;;-2.80;99.90;;;;;;4895189;29;20149;-69
2023/01/30 04:41:50;;;;;;;12.27;9.05;;;-2.80;99.90;;;;;;4898567;29;20082;-69
2023/01/30 04:44:16;;;;;;;13.88;9.43;;;-2.80;99.90;;;;;;4899669;29;20153;-72
2023/01/30 04:46:42;;;;;;;12.07;8.65;;;-2.80;99.90;;;;;;4897364;29;20115;-72
2023/01/30 04:49:09;;;;;;;11.65;8.35;;;-2.80;99.90;;;;;;4901040;29;20856;-72
2023/01/30 04:51:35;;;;;;;14.45;10.00;;;-2.90;99.90;;;;;;4884204;29;20074;-72
2023/01/30 04:54:01;;;;;;;13.13;9.48;;;-2.80;99.90;;;;;;4894969;29;20123;-72
2023/01/30 04:56:27;;;;;;;13.00;9.18;;;-2.80;99.90;;;;;;4882620;29;20722;-72
2023/01/30 04:58:53;;;;;;;14.43;10.18;;;-2.90;99.90;;;;;;4895174;29;20127;-72
2023/01/30 05:01:30;;;;;;;19.23;11.57;;;-2.90;99.90;;;;;;4897847;29;20404;-73
2023/01/30 05:03:56;;;;;;;13.32;9.40;;;-3.00;99.90;;;;;;4900635;29;20570;-69
2023/01/30 05:06:22;;;;;;;15.32;10.77;;;-2.90;99.90;;;;;;4878748;29;20044;-69
2023/01/30 05:08:49;;;;;;;19.45;13.15;;;-2.90;99.90;;;;;;4897220;29;20051;-69
2023/01/30 05:11:15;;;;;;;16.33;11.82;;;-2.90;99.90;;;;;;4895363;29;20035;-69
2023/01/30 05:13:42;;;;;;;34.90;22.80;;;-2.80;99.90;;;;;;4881394;29;20075;-69
2023/01/30 05:16:09;;;;;;;19.30;11.88;;;-2.90;99.90;;;;;;4896221;29;20068;-69
2023/01/30 05:18:34;;;;;;;18.63;11.95;;;-2.90;99.90;;;;;;4913609;29;20043;-69
2023/01/30 05:21:08;;;;;;;18.90;12.48;;;-2.90;99.90;;;;;;4896295;29;20052;-69
2023/01/30 05:23:33;;;;;;;22.13;15.20;;;-2.80;99.90;;;;;;4894651;29;20408;-73
2023/01/30 05:25:59;;;;;;;29.25;21.20;;;-2.90;99.90;;;;;;4899163;29;20514;-72
2023/01/30 05:28:25;;;;;;;32.35;23.73;;;-2.70;99.90;;;;;;4896113;29;20047;-72
2023/01/30 05:30:51;;;;;;;17.30;12.45;;;-2.70;99.90;;;;;;4897886;29;20032;-71
2023/01/30 05:33:17;;;;;;;23.88;14.02;;;-2.70;99.90;;;;;;4897815;29;20516;-71
2023/01/30 05:35:47;;;;;;;21.15;15.63;;;-2.80;99.90;;;;;;4892507;29;20036;-71
2023/01/30 05:38:13;;;;;;;14.50;9.68;;;-2.90;99.90;;;;;;4898382;29;20702;-71
2023/01/30 05:40:38;;;;;;;12.98;9.35;;;-2.90;99.90;;;;;;4897770;29;20032;-70
2023/01/30 05:43:04;;;;;;;13.73;9.95;;;-3.00;99.90;;;;;;4900399;29;20047;-69
2023/01/30 05:45:29;;;;;;;12.75;9.80;;;-3.00;99.90;;;;;;4895250;29;20046;-69
2023/01/30 05:47:55;;;;;;;14.15;10.88;;;-3.00;99.90;;;;;;4887472;29;20040;-69
2023/01/30 05:50:21;;;;;;;13.93;10.05;;;-2.90;99.90;;;;;;4894148;29;20132;-69
2023/01/30 05:52:46;;;;;;;15.75;10.30;;;-2.90;99.90;;;;;;4902064;29;20073;-69
2023/01/30 05:55:12;;;;;;;14.77;10.68;;;-2.90;99.90;;;;;;4897581;29;20040;-68
2023/01/30 05:57:38;;;;;;;13.50;9.95;;;-2.90;99.90;;;;;;4900312;29;20116;-68
2023/01/30 06:00:05;;;;;;;15.45;10.48;;;-2.90;99.90;;;;;;4898943;29;20475;-68
2023/01/30 06:02:31;;;;;;;14.70;10.80;;;-2.80;99.90;;;;;;4897591;29;20131;-69
2023/01/30 06:04:56;;;;;;;15.95;10.65;;;-2.90;99.90;;;;;;4895079;29;20123;-68
2023/01/30 06:07:22;;;;;;;17.25;11.80;;;-2.90;99.90;;;;;;4884429;29;20153;-67
2023/01/30 06:09:48;;;;;;;17.23;10.88;;;-2.80;99.90;;;;;;4893678;29;20512;-67
2023/01/30 06:12:13;;;;;;;20.10;15.02;;;-2.70;99.90;;;;;;4893740;29;20025;-68
2023/01/30 06:14:39;;;;;;;20.67;11.90;;;-2.60;99.90;;;;;;4893438;29;20036;-67
2023/01/30 06:17:05;;;;;;;18.73;12.68;;;-2.40;99.90;;;;;;4892291;29;20061;-68
2023/01/30 06:19:30;;;;;;;15.60;11.95;;;-2.00;99.90;;;;;;4888745;29;20501;-71
2023/01/30 06:21:56;;;;;;;16.17;11.88;;;-1.70;99.90;;;;;;4893041;29;20543;-69
2023/01/30 06:24:22;;;;;;;16.52;11.52;;;-1.50;99.90;;;;;;4889051;29;24410;-68
2023/01/30 06:26:47;;;;;;;15.00;10.88;;;-1.30;99.90;;;;;;4891668;29;20128;-69
2023/01/30 06:29:13;;;;;;;12.93;10.52;;;-1.30;99.90;;;;;;4889070;29;20103;-69
2023/01/30 06:31:38;;;;;;;14.05;10.48;;;-1.40;99.90;;;;;;4886851;29;20036;-70
2023/01/30 06:34:04;;;;;;;16.70;10.48;;;-1.40;99.90;;;;;;4888029;29;20035;-70
2023/01/30 06:36:30;;;;;;;11.48;9.10;;;-1.40;99.90;;;;;;4895078;29;20317;-68
2023/01/30 06:38:55;;;;;;;14.30;9.63;;;-1.50;99.90;;;;;;4893410;29;20443;-68
2023/01/30 06:41:21;;;;;;;12.35;9.13;;;-1.40;99.90;;;;;;4891078;29;20468;-70
2023/01/30 06:43:47;;;;;;;14.80;10.07;;;-1.40;99.90;;;;;;4891964;29;20658;-70
2023/01/30 06:46:12;;;;;;;13.95;9.48;;;-1.30;99.90;;;;;;4890870;29;20127;-71
2023/01/30 06:48:38;;;;;;;12.80;9.25;;;-1.20;99.90;;;;;;4897477;29;20052;-71
2023/01/30 06:51:04;;;;;;;13.25;9.40;;;-1.20;99.90;;;;;;4895273;29;20037;-71
2023/01/30 06:53:29;;;;;;;13.82;9.50;;;-1.10;99.90;;;;;;4900013;29;20481;-71
2023/01/30 06:56:00;;;;;;;13.40;8.95;;;-1.10;99.90;;;;;;4902152;29;20047;-71
2023/01/30 06:58:26;;;;;;;14.95;10.50;;;-1.10;99.90;;;;;;4896523;29;20629;-71
2023/01/30 07:00:51;;;;;;;14.13;9.82;;;-1.10;99.90;;;;;;4903638;29;20158;-71
2023/01/30 07:03:18;;;;;;;13.30;9.30;;;-1.00;99.90;;;;;;4902459;29;20163;-71
2023/01/30 07:05:46;;;;;;;12.30;9.63;;;-1.00;99.90;;;;;;4901527;29;20054;-71
2023/01/30 07:08:12;;;;;;;14.23;10.73;;;-1.00;99.90;;;;;;4901084;29;20056;-71
2023/01/30 07:10:39;;;;;;;14.30;10.40;;;-1.00;99.90;;;;;;4906002;29;20124;-71
2023/01/30 07:13:04;;;;;;;15.18;10.27;;;-1.00;99.90;;;;;;4905333;29;21024;-71
2023/01/30 07:15:31;;;;;;;14.50;10.27;;;-1.00;99.90;;;;;;4900680;29;20040;-71
2023/01/30 07:17:57;;;;;;;18.17;11.25;;;-1.00;99.90;;;;;;4898086;29;20324;-71
2023/01/30 07:20:23;;;;;;;14.48;9.65;;;-1.00;99.90;;;;;;4897217;29;20043;-70
2023/01/30 07:22:53;;;;;;;19.05;11.57;;;-0.90;99.90;;;;;;4890572;29;20047;-71
2023/01/30 07:25:20;;;;;;;15.25;10.57;;;-0.90;99.90;;;;;;4896540;29;20552;-71
2023/01/30 07:27:54;;;;;;;17.42;10.98;;;-0.80;99.90;;;;;;4892830;29;20103;-71
2023/01/30 07:30:19;;;;;;;15.30;10.88;;;-0.70;99.90;;;;;;4893181;29;20127;-70
2023/01/30 07:32:53;;;;;;;14.35;9.95;;;-0.70;99.90;;;;;;4902184;29;20040;-71
2023/01/30 07:35:19;;;;;;;16.00;10.95;;;-0.70;99.90;;;;;;4897938;29;20032;-71
2023/01/30 07:37:49;;;;;;;17.23;10.90;;;-0.70;99.90;;;;;;4899870;29;20048;-72
2023/01/30 07:40:16;;;;;;;14.30;9.98;;;-0.70;99.90;;;;;;4898749;29;20052;-72
2023/01/30 07:42:42;;;;;;;15.27;10.95;;;-0.60;99.90;;;;;;4895163;29;20044;-72
2023/01/30 07:45:08;;;;;;;13.93;9.98;;;-0.60;99.90;;;;;;4900964;29;20051;-71
2023/01/30 07:47:33;;;;;;;18.58;10.75;;;-0.60;99.90;;;;;;4893546;29;20036;-72
2023/01/30 07:49:59;;;;;;;15.88;11.07;;;-0.50;99.90;;;;;;4904036;29;20079;-71
2023/01/30 07:52:25;;;;;;;17.83;10.90;;;-0.50;99.90;;;;;;4899598;29;20398;-72
2023/01/30 07:54:50;;;;;;;14.55;10.85;;;-0.40;99.90;;;;;;4904657;29;20126;-71
2023/01/30 07:57:16;;;;;;;16.75;10.80;;;-0.30;99.90;;;;;;4896609;29;20052;-73
2023/01/30 07:59:41;;;;;;;14.15;10.75;;;-0.30;99.90;;;;;;4900743;29;20127;-74
2023/01/30 08:02:11;;;;;;;15.27;10.75;;;-0.30;99.90;;;;;;4888914;29;20048;-73
2023/01/30 08:04:37;;;;;;;14.80;10.50;;;-0.30;99.90;;;;;;4895525;29;20448;-74
2023/01/30 08:07:03;;;;;;;15.55;10.57;;;-0.40;99.90;;;;;;4895560;29;20028;-74
2023/01/30 08:09:28;;;;;;;16.00;11.55;;;-0.40;99.90;;;;;;4898104;29;20652;-73
2023/01/30 08:11:54;;;;;;;13.85;10.15;;;-0.30;99.90;;;;;;4903225;29;20036;-75
2023/01/30 08:14:20;;;;;;;15.13;10.68;;;-0.30;99.90;;;;;;4902146;29;20036;-74
2023/01/30 08:16:45;;;;;;;14.35;10.25;;;-0.30;99.90;;;;;;4898716;29;20032;-74
2023/01/30 08:19:11;;;;;;;18.30;11.52;;;-0.20;99.90;;;;;;4898417;29;20744;-73
2023/01/30 08:21:37;;;;;;;17.55;11.35;;;-0.10;99.90;;;;;;4894360;29;20750;-73
2023/01/30 08:24:02;;;;;;;18.77;11.40;;;-0.10;99.90;;;;;;4873409;29;20055;-74
2023/01/30 08:26:28;;;;;;;15.07;10.82;;;-0.10;99.90;;;;;;4880727;29;20085;-73
2023/01/30 08:28:54;;;;;;;16.65;11.48;;;-0.20;99.90;;;;;;4893633;29;20059;-74
2023/01/30 08:31:21;;;;;;;19.27;11.90;;;-0.20;99.90;;;;;;4893310;29;20123;-74
2023/01/30 08:33:47;;;;;;;19.08;13.82;;;-0.20;99.90;;;;;;4898258;29;20550;-74
2023/01/30 08:36:12;;;;;;;19.23;14.68;;;-0.30;99.90;;;;;;4886212;29;20092;-72
2023/01/30 08:38:38;;;;;;;19.23;13.43;;;-0.20;99.90;;;;;;4896396;29;20043;-74
2023/01/30 08:41:06;;;;;;;35.00;22.00;;;-0.20;99.90;;;;;;4898166;29;20033;-74
2023/01/30 08:43:32;;;;;;;17.15;12.48;;;-0.20;99.90;;;;;;4900055;29;20143;-73
2023/01/30 08:45:57;;;;;;;22.67;13.40;;;-0.10;99.90;;;;;;4896507;29;20489;-75
2023/01/30 08:48:23;;;;;;;23.77;16.80;;;-0.20;99.90;;;;;;4885404;29;20497;-73
2023/01/30 08:50:52;;;;;;;33.35;19.13;;;-0.20;99.90;;;;;;4894372;29;20036;-73
2023/01/30 08:53:19;;;;;;;26.63;18.15;;;-0.10;99.90;;;;;;4883456;29;20036;-72
2023/01/30 08:55:44;;;;;;;16.58;12.30;;;-0.10;99.90;;;;;;4872736;29;21350;-75
2023/01/30 08:58:10;;;;;;;17.70;12.13;;;0.00;99.90;;;;;;4887577;29;20040;-73
2023/01/30 09:00:38;;;;;;;20.92;14.40;;;0.00;99.90;;;;;;4884911;29;20689;-76
2023/01/30 09:03:03;;;;;;;14.93;10.05;;;0.00;99.90;;;;;;4875023;29;20074;-75
2023/01/30 09:05:29;;;;;;;26.42;16.52;;;0.00;99.90;;;;;;4890035;29;20220;-73
2023/01/30 09:07:55;;;;;;;26.15;18.90;;;0.00;99.90;;;;;;4899674;29;20048;-75
2023/01/30 09:10:23;;;;;;;23.50;15.02;;;0.10;99.90;;;;;;4894802;29;20091;-73
2023/01/30 09:12:48;;;;;;;30.48;18.58;;;0.10;99.90;;;;;;4896021;29;20556;-69
2023/01/30 09:15:14;;;;;;;16.85;11.68;;;0.20;99.90;;;;;;4889136;29;20036;-69
2023/01/30 09:17:40;;;;;;;30.35;19.98;;;0.20;99.90;;;;;;4893849;29;20040;-70
2023/01/30 09:20:07;;;;;;;20.02;13.35;;;0.20;99.90;;;;;;4886736;29;20051;-69
2023/01/30 09:22:33;;;;;;;19.40;12.70;;;0.30;99.90;;;;;;4896398;29;20040;-70
2023/01/30 09:24:59;;;;;;;21.20;14.73;;;0.40;99.90;;;;;;4901311;29;20544;-70
2023/01/30 09:27:25;;;;;;;13.88;10.75;;;0.40;99.90;;;;;;4893958;29;20041;-70
2023/01/30 09:29:51;;;;;;;16.13;11.20;;;0.40;99.90;;;;;;4892791;29;22597;-69
2023/01/30 09:32:16;;;;;;;17.15;11.35;;;0.40;99.90;;;;;;4894233;29;20063;-72
2023/01/30 09:34:42;;;;;;;16.58;11.23;;;0.40;99.90;;;;;;4886791;29;20256;-74
2023/01/30 09:37:08;;;;;;;16.95;11.38;;;0.40;99.90;;;;;;4870354;29;20501;-73
2023/01/30 09:39:33;;;;;;;17.75;11.57;;;0.50;99.90;;;;;;4896228;29;20044;-74
2023/01/30 09:42:05;;;;;;;19.52;11.65;;;0.60;99.90;;;;;;4896138;29;20063;-74
2023/01/30 09:44:52;;;;;;;17.20;13.95;;;0.60;99.90;;;;;;4889951;29;20046;-75
2023/01/30 09:47:42;;;;;;;12.05;7.80;;;0.60;99.90;;;;;;4897177;29;20046;-71
2023/01/30 09:50:36;;;;;;;16.38;9.90;;;0.70;99.90;;;;;;4873411;29;20048;-71
2023/01/30 09:53:32;;;;;;;18.63;11.88;;;0.60;99.90;;;;;;4887508;29;20044;-71
2023/01/30 09:55:58;;;;;;;17.05;11.40;;;0.70;99.90;;;;;;4890374;29;20064;-71
2023/01/30 09:58:32;;;;;;;14.57;10.43;;;0.80;99.90;;;;;;4892604;29;20473;-70
2023/01/30 10:01:05;;;;;;;19.02;11.20;;;0.80;99.90;;;;;;4902547;29;20100;-71
2023/01/30 10:03:44;;;;;;;18.65;11.50;;;0.80;99.90;;;;;;4899690;29;20047;-70
2023/01/30 10:06:13;;;;;;;21.15;13.60;;;0.90;99.90;;;;;;4896561;29;21009;-70
2023/01/30 10:08:53;;;;;;;32.90;18.50;;;1.10;99.90;;;;;;4885079;29;20040;-74
2023/01/30 10:11:33;;;;;;;21.35;14.50;;;1.20;99.90;;;;;;4891151;29;20096;-75
2023/01/30 10:14:16;;;;;;;15.60;10.40;;;1.20;99.90;;;;;;4899377;29;20044;-75
2023/01/30 10:17:00;;;;;;;24.30;15.35;;;1.20;99.90;;;;;;4892672;29;20071;-77
2023/01/30 10:19:43;;;;;;;16.13;10.95;;;1.20;99.90;;;;;;4893851;29;20197;-76
2023/01/30 10:22:09;;;;;;;16.35;11.50;;;1.20;99.90;;;;;;4890728;29;20072;-75
2023/01/30 10:24:56;;;;;;;18.52;14.20;;;1.30;99.90;;;;;;4889075;29;20140;-76
2023/01/30 10:27:26;;;;;;;15.95;11.98;;;1.30;99.90;;;;;;4886970;29;20041;-71
2023/01/30 10:29:59;;;;;;;15.88;11.82;;;1.30;99.90;;;;;;4887323;29;20047;-69
2023/01/30 10:32:31;;;;;;;24.48;17.80;;;1.30;99.90;;;;;;4894302;29;20177;-70
2023/01/30 10:35:04;;;;;;;15.52;11.48;;;1.50;99.90;;;;;;4905077;29;20475;-70
2023/01/30 10:38:11;;;;;;;14.35;11.10;;;1.50;99.90;;;;;;4897977;29;20430;-69
2023/01/30 10:40:45;;;;;;;15.80;13.13;;;1.50;99.90;;;;;;4891820;29;20113;-68
2023/01/30 10:43:29;;;;;;;34.97;24.73;;;1.50;99.90;;;;;;4897389;29;20049;-70
2023/01/30 10:46:33;;;;;;;16.10;12.30;;;1.50;99.90;;;;;;4904275;29;20059;-70
2023/01/30 10:49:14;;;;;;;16.77;11.02;;;1.50;99.90;;;;;;4903815;29;20333;-70
2023/01/30 10:51:45;;;;;;;16.97;10.90;;;1.50;99.90;;;;;;4903699;29;20040;-70
2023/01/30 10:54:23;;;;;;;18.88;12.57;;;1.50;99.90;;;;;;4903815;29;20043;-70
2023/01/30 10:57:06;;;;;;;23.90;14.23;;;1.50;99.90;;;;;;4905831;29;20071;-69
2023/01/30 10:59:54;;;;;;;31.02;18.50;;;1.50;99.90;;;;;;4898921;29;20051;-70
2023/01/30 11:02:45;;;;;;;82.95;44.00;;;1.50;99.90;;;;;;4905594;29;20040;-69
2023/01/30 11:05:18;;;;;;;40.85;23.98;;;1.50;99.90;;;;;;4899819;29;20059;-72
2023/01/30 11:07:45;;;;;;;40.50;24.05;;;1.60;99.90;;;;;;4907132;29;20043;-75
2023/01/30 11:10:23;;;;;;;40.75;25.80;;;1.70;99.90;;;;;;4899053;29;20517;-75
2023/01/30 11:13:14;;;;;;;24.88;15.80;;;1.70;99.90;;;;;;4904534;29;20036;-75
2023/01/30 11:15:40;;;;;;;26.90;17.10;;;1.70;99.90;;;;;;4886348;29;20051;-80
2023/01/30 11:18:07;;;;;;;33.28;23.00;;;1.80;99.90;;;;;;4903513;29;20047;-76
2023/01/30 11:20:40;;;;;;;28.55;18.05;;;1.70;99.90;;;;;;4903616;29;20108;-76
2023/01/30 11:23:19;;;;;;;21.17;13.48;;;1.70;99.90;;;;;;4903097;29;20486;-69
2023/01/30 11:25:55;;;;;;;25.02;16.75;;;1.80;99.90;;;;;;4886210;29;20043;-69
2023/01/30 11:28:21;;;;;;;58.45;35.58;;;1.90;99.90;;;;;;4902809;29;20336;-68
2023/01/30 11:30:55;;;;;;;16.02;10.00;;;1.90;99.90;;;;;;4897818;29;20401;-69
2023/01/30 11:33:22;;;;;;;13.80;8.98;;;2.00;99.90;;;;;;4902913;29;20080;-69
2023/01/30 11:35:53;;;;;;;22.48;14.80;;;2.00;99.90;;;;;;4900623;29;20063;-69
2023/01/30 11:38:24;;;;;;;10.57;8.07;;;2.00;99.90;;;;;;4908306;29;20036;-70
2023/01/30 11:41:02;;;;;;;11.43;7.93;;;2.00;99.90;;;;;;4901886;29;20347;-70
2023/01/30 11:43:27;;;;;;;12.50;8.23;;;2.10;99.90;;;;;;4902518;29;20118;-70
2023/01/30 11:45:54;;;;;;;18.80;11.40;;;2.10;99.90;;;;;;4900624;29;20478;-70
2023/01/30 11:48:26;;;;;;;13.15;7.97;;;2.20;99.90;;;;;;4902060;29;20060;-70
2023/01/30 11:50:57;;;;;;;28.98;16.92;;;2.10;99.90;;;;;;4900620;29;20139;-69
2023/01/30 11:53:34;;;;;;;12.25;8.68;;;2.10;99.90;;;;;;4906837;29;20683;-70
2023/01/30 11:56:27;;;;;;;15.20;9.13;;;2.00;99.90;;;;;;4894454;29;20048;-69
2023/01/30 11:58:59;;;;;;;13.13;9.43;;;2.00;99.90;;;;;;4892945;29;20040;-69
2023/01/30 12:01:27;;;;;;;;;;;2.00;99.90;;;;;;4888092;29;20564;-77
2023/01/30 12:03:54;;;;;;;17.92;11.88;;;2.00;99.90;;;;;;4896027;29;20427;-77
2023/01/30 12:06:29;;;;;;;14.43;7.47;;;2.10;99.90;;;;;;4891672;29;20096;-77
2023/01/30 12:08:56;;;;;;;10.82;7.28;;;2.10;99.90;;;;;;4890799;29;20055;-75
2023/01/30 12:11:43;;;;;;;11.65;8.20;;;2.10;99.90;;;;;;4902158;29;20040;-75
2023/01/30 12:14:16;;;;;;;10.80;7.95;;;2.10;99.90;;;;;;4903861;29;20060;-75
2023/01/30 12:17:03;;;;;;;13.27;7.88;;;2.20;99.90;;;;;;4901768;29;20383;-75
2023/01/30 12:19:38;;;;;;;9.88;7.03;;;2.20;99.90;;;;;;4900396;29;20029;-77
2023/01/30 12:22:20;;;;;;;12.35;8.25;;;2.30;99.90;;;;;;4898770;29;20168;-76
2023/01/30 12:25:14;;;;;;;10.23;6.88;;;2.30;99.90;;;;;;4900971;29;20126;-70
2023/01/30 12:27:47;;;;;;;7.75;5.95;;;2.30;99.90;;;;;;4893233;29;20086;-71
2023/01/30 12:30:23;;;;;;;7.47;5.20;;;2.40;99.90;;;;;;4898540;29;20498;-72
2023/01/30 12:32:58;;;;;;;10.70;6.55;;;2.40;99.90;;;;;;4900118;29;20044;-72
2023/01/30 12:35:38;;;;;;;9.25;5.45;;;2.50;99.90;;;;;;4902685;29;20040;-73
2023/01/30 12:38:16;;;;;;;6.65;4.55;;;2.50;99.90;;;;;;4898374;29;20040;-76
2023/01/30 12:40:45;;;;;;;8.13;5.95;;;2.50;99.90;;;;;;4900015;29;20047;-86
2023/01/30 12:43:34;;;;;;;7.10;5.70;;;2.50;99.90;;;;;;4895995;29;20509;-73
2023/01/30 12:46:19;;;;;;;8.05;5.95;;;2.50;99.90;;;;;;4904200;29;20744;-72
2023/01/30 12:48:47;;;;;;;8.75;6.00;;;2.40;99.90;;;;;;4897405;29;20047;-76
2023/01/30 12:51:16;;;;;;;8.45;6.13;;;2.40;99.90;;;;;;4890058;29;20044;-73
2023/01/30 12:54:08;;;;;;;10.48;5.85;;;2.30;99.90;;;;;;4896250;29;20076;-73
2023/01/30 12:56:58;;;;;;;7.97;5.75;;;2.30;99.90;;;;;;4899752;29;20047;-72
2023/01/30 12:59:59;;;;;;;6.55;5.65;;;2.30;99.90;;;;;;4902815;29;20177;-73